Time;durP1;ratioP1;P1;durP2;ratioP2;P2;SDS_P1;SDS_P2;PMS_P1;PMS_P2;Temp;Humidity;BMP_temperature;BMP_pressure;BME280_temperature;BME280_humidity;BME280_pressure;Samples;Min_cycle;Max_cycle;Signal;HPM_P1;HPM_P2
2021/10/02 00:31:18;;;;;;;;;6.25;6.25;;;;;14.98;71.13;100677.72;5058353;28;45254;-59
2021/10/02 00:34:21;;;;;;;;;6.00;6.00;;;;;14.96;71.27;100678.88;5058127;28;45481;-59
2021/10/02 00:44:43;;;;;;;;;5.75;5.75;;;;;14.82;71.38;100678.50;5040741;28;45391;-59
2021/10/02 00:47:12;;;;;;;;;8.25;6.00;;;;;14.81;71.28;100673.41;5058148;28;45760;-59
2021/10/02 00:49:39;;;;;;;;;2.00;1.25;;;;;14.78;70.81;100671.88;5058090;28;45449;-59
2021/10/02 00:52:06;;;;;;;;;6.50;4.75;;;;;14.75;71.25;100666.09;5057385;28;45404;-59
2021/10/02 00:54:32;;;;;;;;;5.25;5.25;;;;;14.73;71.44;100665.44;5057776;28;45219;-60
2021/10/02 00:56:57;;;;;;;;;6.00;6.00;;;;;14.69;71.05;100649.88;5056937;28;67156;-59
2021/10/02 00:59:23;;;;;;;;;8.00;5.25;;;;;14.66;71.13;100650.16;5057306;28;56210;-59
2021/10/02 01:01:53;;;;;;;;;8.00;5.50;;;;;14.65;71.01;100655.59;5057795;28;45528;-59
2021/10/02 01:04:44;;;;;;;;;6.25;6.25;;;;;14.63;71.09;100658.41;5023083;28;46186;-59
2021/10/02 01:07:24;;;;;;;;;5.00;4.75;;;;;14.61;71.02;100648.97;5039729;28;45375;-59
2021/10/02 01:10:14;;;;;;;;;6.00;6.00;;;;;14.58;71.02;100644.84;5057882;28;45334;-60
2021/10/02 01:12:48;;;;;;;;;5.75;5.75;;;;;14.56;71.24;100646.81;5056159;28;45340;-59
2021/10/02 01:15:19;;;;;;;;;8.75;5.50;;;;;14.54;70.81;100647.00;5057147;28;46222;-59
2021/10/02 01:18:27;;;;;;;;;6.25;5.50;;;;;14.53;71.32;100647.13;5023254;28;45355;-59
2021/10/02 01:20:58;;;;;;;;;7.25;7.25;;;;;14.50;71.04;100650.09;5051566;28;45297;-59
2021/10/02 01:23:33;;;;;;;;;8.50;6.00;;;;;14.47;71.34;100645.13;5057108;28;45379;-59
2021/10/02 01:26:24;;;;;;;;;6.25;6.25;;;;;14.44;71.58;100640.16;5039245;28;45439;-59
2021/10/02 01:28:54;;;;;;;;;8.00;6.50;;;;;14.42;70.92;100652.69;5041793;28;45468;-60
2021/10/02 01:31:28;;;;;;;;;11.50;8.25;;;;;14.39;71.41;100651.22;5023902;28;45353;-59
2021/10/02 01:34:04;;;;;;;;;8.50;6.50;;;;;14.38;71.51;100649.56;5040462;28;45362;-59
2021/10/02 01:47:30;;;;;;;;;6.50;5.50;;;;;14.35;71.89;100624.25;5041680;28;45455;-59
2021/10/02 01:49:55;;;;;;;;;6.25;6.25;;;;;14.34;72.16;100625.25;5057008;28;45319;-59
2021/10/02 01:52:26;;;;;;;;;7.25;6.25;;;;;14.35;72.31;100611.03;5056736;28;48994;-59
2021/10/02 01:54:54;;;;;;;;;10.00;7.50;;;;;14.36;72.49;100620.63;5022971;28;45555;-60
2021/10/02 01:57:20;;;;;;;;;10.00;6.50;;;;;14.38;72.77;100608.06;5022339;28;45437;-59
2021/10/02 01:59:45;;;;;;;;;6.25;6.25;;;;;14.38;72.89;100597.50;5022489;28;45371;-59
2021/10/02 02:02:11;;;;;;;;;8.00;6.50;;;;;14.38;72.63;100594.88;5021228;28;60924;-59
2021/10/02 02:04:39;;;;;;;;;5.50;5.50;;;;;14.38;72.79;100586.13;5020554;28;61597;-59
2021/10/02 02:07:04;;;;;;;;;8.00;6.25;;;;;14.42;73.00;100581.31;5039400;28;45414;-60
2021/10/02 02:09:37;;;;;;;;;8.25;6.75;;;;;14.43;72.69;100575.91;5022147;28;45365;-59
2021/10/02 02:12:06;;;;;;;;;8.50;7.50;;;;;14.46;72.53;100582.66;5024034;28;45246;-59
2021/10/02 02:14:33;;;;;;;;;7.75;5.75;;;;;14.44;72.38;100582.84;5038677;28;45599;-59
2021/10/02 02:16:58;;;;;;;;;6.25;6.25;;;;;14.43;72.03;100575.91;5038585;28;46338;-59
2021/10/02 02:19:23;;;;;;;;;7.75;7.00;;;;;14.44;72.13;100587.28;5037577;28;70435;-59
2021/10/02 02:21:49;;;;;;;;;6.00;5.50;;;;;14.42;71.91;100589.25;5020962;28;66650;-59
2021/10/02 02:24:14;;;;;;;;;6.25;5.50;;;;;14.40;71.83;100590.25;5037694;28;67339;-59
2021/10/02 02:26:40;;;;;;;;;7.75;6.25;;;;;14.37;72.19;100584.47;5055449;28;72649;-59
2021/10/02 02:29:05;;;;;;;;;7.25;6.75;;;;;14.36;71.71;100573.03;5038593;28;45434;-59
2021/10/02 02:31:32;;;;;;;;;7.25;6.50;;;;;14.36;71.90;100577.53;5038265;28;45344;-59
2021/10/02 02:33:57;;;;;;;;;8.25;8.25;;;;;14.37;72.08;100582.63;5056413;28;45224;-59
2021/10/02 02:36:23;;;;;;;;;7.50;7.50;;;;;14.39;71.93;100580.66;5021578;28;48066;-59
2021/10/02 02:38:48;;;;;;;;;10.25;7.00;;;;;14.38;72.10;100576.34;5021341;28;55123;-59
2021/10/02 02:41:14;;;;;;;;;10.00;7.50;;;;;14.38;72.63;100567.63;5055892;28;53771;-62
2021/10/02 02:43:39;;;;;;;;;11.75;8.50;;;;;14.39;72.74;100561.34;5038404;28;45589;-59
2021/10/02 02:46:17;;;;;;;;;7.75;7.75;;;;;14.39;72.41;100556.88;5037986;28;45324;-59
2021/10/02 02:49:08;;;;;;;;;11.50;7.75;;;;;14.40;72.59;100547.94;5038513;28;45443;-59
2021/10/02 02:51:59;;;;;;;;;9.00;7.25;;;;;14.40;72.57;100537.38;5040677;28;45414;-59
2021/10/02 02:54:26;;;;;;;;;10.25;9.50;;;;;14.42;72.54;100536.38;5056194;28;45351;-59
2021/10/02 02:56:52;;;;;;;;;10.25;7.50;;;;;14.39;72.14;100543.66;5037921;28;46204;-59
2021/10/02 02:59:19;;;;;;;;;11.25;7.50;;;;;14.39;72.36;100556.06;5037094;28;70569;-59
2021/10/02 03:01:44;;;;;;;;;9.25;8.75;;;;;14.38;72.58;100555.22;5038285;28;45351;-59
2021/10/02 03:04:11;;;;;;;;;8.25;8.25;;;;;14.38;72.30;100542.00;5037310;28;65256;-59
2021/10/02 03:06:43;;;;;;;;;9.50;8.50;;;;;14.36;72.21;100525.47;5021368;28;46919;-59
2021/10/02 03:09:08;;;;;;;;;8.25;7.50;;;;;14.37;72.68;100536.88;5021906;28;45816;-59
2021/10/02 03:11:33;;;;;;;;;8.75;8.25;;;;;14.37;72.75;100542.16;5055147;28;63831;-60
2021/10/02 03:13:59;;;;;;;;;9.25;7.50;;;;;14.38;72.30;100538.53;5055145;28;61682;-59
2021/10/02 03:16:26;;;;;;;;;9.50;8.25;;;;;14.37;72.28;100537.69;5023854;28;45291;-59
2021/10/02 03:18:58;;;;;;;;;9.50;8.00;;;;;14.36;72.82;100533.41;5059219;28;45363;-59
2021/10/02 03:21:23;;;;;;;;;6.50;6.50;;;;;14.37;72.32;100527.13;5041466;28;46230;-59
2021/10/02 03:23:49;;;;;;;;;8.25;8.00;;;;;14.37;72.38;100505.97;5059097;28;45388;-59
2021/10/02 03:26:15;;;;;;;;;7.75;7.75;;;;;14.38;72.58;100497.06;5041379;28;45607;-59
2021/10/02 03:28:41;;;;;;;;;8.50;8.50;;;;;14.37;72.11;100499.88;5041095;28;45424;-59
2021/10/02 03:31:07;;;;;;;;;8.75;7.25;;;;;14.35;72.72;100526.47;5041327;28;45400;-60
2021/10/02 03:33:32;;;;;;;;;9.75;7.50;;;;;14.36;72.80;100519.38;5024587;28;45341;-59
2021/10/02 03:35:57;;;;;;;;;12.75;8.25;;;;;14.36;72.71;100511.44;5039910;28;71508;-60
2021/10/02 03:38:23;;;;;;;;;6.75;6.50;;;;;14.36;72.75;100516.72;5023393;28;70983;-59
2021/10/02 03:40:49;;;;;;;;;9.75;8.75;;;;;14.37;72.37;100510.44;5059079;28;45445;-59
2021/10/02 03:43:14;;;;;;;;;14.00;11.00;;;;;14.37;72.94;100503.34;5058335;28;62430;-59
2021/10/02 03:45:39;;;;;;;;;11.00;11.00;;;;;14.37;72.69;100490.13;5058940;28;46334;-59
2021/10/02 03:48:05;;;;;;;;;11.25;9.25;;;;;14.39;73.02;100487.31;5039975;28;66257;-61
2021/10/02 03:50:31;;;;;;;;;7.50;6.25;;;;;14.38;72.69;100483.84;5059030;28;45383;-59
2021/10/02 03:52:57;;;;;;;;;12.75;9.75;;;;;14.38;72.44;100478.56;5041171;28;45647;-59
2021/10/02 03:55:22;;;;;;;;;11.25;9.00;;;;;14.38;72.64;100470.63;5058767;28;45451;-59
2021/10/02 03:57:48;;;;;;;;;12.25;10.25;;;;;14.38;72.98;100467.16;5057967;28;65052;-59
2021/10/02 04:00:13;;;;;;;;;11.75;10.00;;;;;14.37;72.54;100458.41;5058869;28;45229;-59
2021/10/02 04:02:39;;;;;;;;;11.25;10.50;;;;;14.37;73.01;100450.47;5040803;28;45626;-61
2021/10/02 04:05:04;;;;;;;;;12.25;10.50;;;;;14.37;72.54;100461.03;5057318;28;74545;-60
2021/10/02 04:07:30;;;;;;;;;10.25;10.00;;;;;14.37;73.13;100468.97;5058459;28;45351;-60
2021/10/02 04:09:55;;;;;;;;;11.00;10.00;;;;;14.37;73.26;100473.44;5058654;28;45585;-60
2021/10/02 04:12:20;;;;;;;;;12.00;10.00;;;;;14.38;72.87;100489.13;5040727;28;45408;-60
2021/10/02 04:14:48;;;;;;;;;11.50;9.75;;;;;14.38;73.43;100478.56;5057396;28;72467;-60
2021/10/02 04:17:14;;;;;;;;;10.75;10.75;;;;;14.38;73.23;100465.34;5058348;28;45348;-60
2021/10/02 04:19:39;;;;;;;;;9.75;9.50;;;;;14.40;73.20;100450.16;5058603;28;45332;-60
2021/10/02 04:22:05;;;;;;;;;10.50;10.25;;;;;14.43;73.51;100456.09;5058198;28;45432;-60
2021/10/02 04:24:30;;;;;;;;;11.00;8.25;;;;;14.43;73.22;100461.38;5058292;28;48593;-60
2021/10/02 04:26:58;;;;;;;;;8.25;8.25;;;;;14.45;73.61;100469.97;5057373;28;45894;-60
2021/10/02 04:29:25;;;;;;;;;10.25;9.50;;;;;14.47;73.16;100471.50;5058370;28;45263;-60
2021/10/02 04:31:50;;;;;;;;;9.25;9.25;;;;;14.48;73.52;100472.31;5056999;28;45414;-60
2021/10/02 04:34:16;;;;;;;;;10.00;9.00;;;;;14.48;73.40;100469.66;5057147;28;72846;-59
2021/10/02 04:36:41;;;;;;;;;8.25;8.25;;;;;14.49;73.54;100466.03;5057975;28;45316;-60
2021/10/02 04:39:06;;;;;;;;;9.25;8.50;;;;;14.50;73.56;100462.38;5039863;28;45692;-60
2021/10/02 04:41:32;;;;;;;;;10.75;9.50;;;;;14.53;73.24;100459.41;5057658;28;63646;-60
2021/10/02 04:43:57;;;;;;;;;8.25;8.25;;;;;14.56;73.31;100467.03;5057377;28;62291;-59
2021/10/02 04:46:22;;;;;;;;;8.50;8.25;;;;;14.58;73.59;100470.34;5039072;28;68419;-60
2021/10/02 04:48:48;;;;;;;;;15.75;9.25;;;;;14.59;73.28;100477.28;5057910;28;45521;-60
2021/10/02 04:51:13;;;;;;;;;9.00;9.00;;;;;14.60;73.32;100473.63;5040116;28;45449;-60
2021/10/02 04:53:39;;;;;;;;;10.75;10.75;;;;;14.61;74.02;100477.94;5039789;28;46139;-59
2021/10/02 04:56:10;;;;;;;;;13.25;10.50;;;;;14.63;73.54;100453.97;5057590;28;51374;-60
2021/10/02 04:58:35;;;;;;;;;12.75;9.00;;;;;14.65;73.60;100441.41;5057709;28;45261;-60
2021/10/02 05:01:02;;;;;;;;;9.50;8.00;;;;;14.65;73.95;100455.47;5056958;28;66688;-60
2021/10/02 05:03:27;;;;;;;;;10.25;9.50;;;;;14.66;73.88;100465.06;5057904;28;46600;-60
2021/10/02 05:05:53;;;;;;;;;8.25;8.25;;;;;14.66;73.90;100462.41;5057647;28;45383;-63
2021/10/02 05:08:18;;;;;;;;;11.00;8.50;;;;;14.69;73.50;100456.81;5055454;28;62211;-60
2021/10/02 05:10:44;;;;;;;;;12.50;9.50;;;;;14.71;73.49;100469.06;5056923;28;52659;-62
2021/10/02 05:13:09;;;;;;;;;11.25;9.50;;;;;14.72;73.43;100474.16;5057179;28;46450;-60
2021/10/02 05:15:34;;;;;;;;;12.25;9.00;;;;;14.73;73.48;100475.00;5038644;28;56462;-60
2021/10/02 05:18:00;;;;;;;;;13.25;9.75;;;;;14.75;74.13;100475.66;5056531;28;67412;-60
2021/10/02 05:20:26;;;;;;;;;13.00;11.25;;;;;14.76;73.49;100477.31;5057378;28;45596;-60
2021/10/02 05:22:52;;;;;;;;;11.25;9.75;;;;;14.77;73.89;100473.69;5057000;28;46252;-60
2021/10/02 05:25:17;;;;;;;;;10.00;8.00;;;;;14.78;73.75;100462.13;5056557;28;65523;-60
2021/10/02 05:27:42;;;;;;;;;12.75;9.25;;;;;14.79;73.96;100472.53;5056979;28;45283;-60
2021/10/02 05:30:08;;;;;;;;;10.25;10.25;;;;;14.81;73.63;100469.72;5056385;28;69587;-60
2021/10/02 05:32:34;;;;;;;;;12.50;9.50;;;;;14.80;73.71;100452.19;5057034;28;45340;-60
2021/10/02 05:34:59;;;;;;;;;11.25;10.75;;;;;14.81;73.89;100440.63;5056606;28;59283;-61
2021/10/02 05:37:24;;;;;;;;;9.50;8.50;;;;;14.82;73.91;100450.22;5056322;28;60571;-60
2021/10/02 05:39:50;;;;;;;;;7.25;7.25;;;;;14.83;73.66;100447.38;5039225;28;45552;-60
2021/10/02 05:42:15;;;;;;;;;10.75;9.75;;;;;14.84;73.76;100442.91;5038698;28;45410;-60
2021/10/02 05:44:41;;;;;;;;;10.75;9.00;;;;;14.85;73.73;100428.69;5056865;28;45293;-60
2021/10/02 05:47:06;;;;;;;;;8.75;8.75;;;;;14.84;73.98;100434.97;5038071;28;60945;-60
2021/10/02 05:49:32;;;;;;;;;10.00;8.50;;;;;14.85;73.70;100428.69;5056622;28;45561;-60
2021/10/02 05:51:57;;;;;;;;;9.75;9.75;;;;;14.84;73.89;100421.75;5056466;28;46484;-60
2021/10/02 05:54:22;;;;;;;;;12.75;11.25;;;;;14.83;73.77;100425.41;5037660;28;70559;-60
2021/10/02 05:56:48;;;;;;;;;12.25;10.25;;;;;14.83;73.97;100422.78;5038427;28;50196;-60
2021/10/02 05:59:13;;;;;;;;;16.25;10.50;;;;;14.84;74.14;100413.81;5056710;28;45503;-60
2021/10/02 06:01:39;;;;;;;;;12.00;11.00;;;;;14.85;74.03;100418.13;5055869;28;59760;-60
2021/10/02 06:04:04;;;;;;;;;12.75;10.50;;;;;14.85;73.94;100412.81;5056416;28;45218;-60
2021/10/02 06:06:30;;;;;;;;;10.00;9.75;;;;;14.86;74.19;100414.47;5056218;28;49056;-60
2021/10/02 06:08:55;;;;;;;;;13.00;12.75;;;;;14.86;73.81;100421.59;5055605;28;67010;-60
2021/10/02 06:11:20;;;;;;;;;10.75;10.75;;;;;14.87;74.30;100423.25;5055828;28;62664;-60
2021/10/02 06:13:47;;;;;;;;;12.50;11.00;;;;;14.87;74.31;100421.41;5056377;28;45440;-60
2021/10/02 06:16:13;;;;;;;;;11.75;10.50;;;;;14.88;74.09;100423.06;5056402;28;45192;-60
2021/10/02 06:18:38;;;;;;;;;9.75;8.00;;;;;14.87;74.28;100424.06;5055131;28;45641;-60
2021/10/02 06:21:06;;;;;;;;;8.00;8.00;;;;;14.89;74.38;100427.38;5037026;28;72585;-60
2021/10/02 06:23:32;;;;;;;;;7.00;5.25;;;;;14.90;74.18;100422.91;5056208;28;45386;-60
2021/10/02 06:25:57;;;;;;;;;11.00;11.00;;;;;14.90;74.29;100418.44;5056351;28;45382;-60
2021/10/02 06:28:22;;;;;;;;;7.00;5.75;;;;;14.92;73.82;100413.00;5037471;28;59940;-60
2021/10/02 06:30:48;;;;;;;;;6.00;4.75;;;;;14.93;73.58;100412.00;5056138;28;46137;-60
2021/10/02 06:33:13;;;;;;;;;5.25;5.25;;;;;14.93;73.45;100422.59;5056101;28;45433;-60
2021/10/02 06:35:39;;;;;;;;;6.75;6.00;;;;;14.93;73.21;100417.28;5056189;28;45427;-60
2021/10/02 06:38:04;;;;;;;;;4.75;4.75;;;;;14.92;73.30;100405.88;5038238;28;45442;-59
2021/10/02 06:40:30;;;;;;;;;3.75;3.75;;;;;14.92;73.44;100405.06;5053978;28;72669;-60
2021/10/02 06:42:55;;;;;;;;;4.75;3.75;;;;;14.91;73.55;100409.50;5056335;28;45403;-60
2021/10/02 06:45:20;;;;;;;;;4.00;4.00;;;;;14.93;73.51;100399.59;5055571;28;61668;-60
2021/10/02 06:47:46;;;;;;;;;5.25;4.75;;;;;14.93;73.31;100412.81;5056173;28;45349;-60
2021/10/02 06:50:11;;;;;;;;;3.75;3.00;;;;;14.94;73.29;100411.81;5036184;28;69830;-60
2021/10/02 06:52:37;;;;;;;;;3.25;3.25;;;;;14.96;73.00;100409.84;5055823;28;45316;-60
2021/10/02 06:55:02;;;;;;;;;7.25;4.00;;;;;14.96;73.08;100415.13;5056164;28;45226;-60
2021/10/02 06:57:28;;;;;;;;;2.50;2.50;;;;;14.96;72.78;100404.53;5055612;28;45674;-60
2021/10/02 06:59:53;;;;;;;;;4.75;3.75;;;;;14.97;72.52;100403.56;5054768;28;70843;-60
2021/10/02 07:02:19;;;;;;;;;4.00;4.00;;;;;14.97;72.73;100416.78;5055736;28;49728;-60
2021/10/02 07:04:45;;;;;;;;;5.00;3.00;;;;;14.97;72.30;100422.06;5055733;28;45631;-60
2021/10/02 07:07:11;;;;;;;;;5.75;4.00;;;;;14.97;72.21;100406.19;5055827;28;45459;-60
2021/10/02 07:09:36;;;;;;;;;3.00;3.00;;;;;14.96;72.31;100393.97;5055709;28;48276;-60
2021/10/02 07:12:01;;;;;;;;;3.75;3.75;;;;;14.97;71.51;100400.91;5055482;28;45189;-60
2021/10/02 07:14:27;;;;;;;;;6.00;4.50;;;;;14.96;72.11;100386.03;5037708;28;45373;-60
2021/10/02 07:16:52;;;;;;;;;3.75;3.75;;;;;14.95;71.69;100384.38;5054965;28;59846;-60
2021/10/02 07:19:18;;;;;;;;;4.00;3.75;;;;;14.94;72.06;100377.44;5054584;28;70517;-60
2021/10/02 07:21:43;;;;;;;;;6.00;4.00;;;;;14.96;71.91;100387.88;5054470;28;71063;-59
2021/10/02 07:24:09;;;;;;;;;4.50;3.00;;;;;14.97;71.85;100395.63;5055724;28;45312;-60
2021/10/02 07:26:34;;;;;;;;;3.00;3.00;;;;;14.96;71.75;100404.53;5037518;28;45439;-60
2021/10/02 07:29:00;;;;;;;;;4.50;3.25;;;;;14.98;71.79;100391.97;5055395;28;46337;-60
2021/10/02 07:31:25;;;;;;;;;4.50;2.50;;;;;14.99;71.15;100396.28;5054633;28;69502;-60
2021/10/02 07:33:50;;;;;;;;;6.25;3.50;;;;;15.00;71.53;100397.13;5055658;28;45575;-60
2021/10/02 07:36:16;;;;;;;;;2.75;2.00;;;;;15.02;71.53;100386.34;5037260;28;47194;-60
2021/10/02 07:38:42;;;;;;;;;2.75;2.75;;;;;15.03;70.84;100370.31;5055629;28;46503;-60
2021/10/02 07:41:08;;;;;;;;;5.50;2.75;;;;;15.04;70.14;100361.38;5055515;28;45807;-60
2021/10/02 07:43:33;;;;;;;;;1.00;1.00;;;;;15.07;70.02;100370.78;5020484;28;59774;-60
2021/10/02 07:45:59;;;;;;;;;5.75;2.00;;;;;15.12;69.42;100360.53;5036871;28;61906;-60
2021/10/02 07:48:24;;;;;;;;;1.75;1.75;;;;;15.21;69.36;100353.38;5021085;28;45325;-60
2021/10/02 07:50:53;;;;;;;;;1.50;1.50;;;;;15.27;69.24;100348.25;5055228;28;45462;-60
2021/10/02 07:53:18;;;;;;;;;2.00;1.75;;;;;15.38;69.15;100341.72;5054359;28;45473;-60
2021/10/02 07:55:46;;;;;;;;;3.75;1.75;;;;;15.51;68.91;100343.00;5034877;28;66747;-60
2021/10/02 07:58:12;;;;;;;;;3.00;2.75;;;;;15.64;68.20;100335.31;5020056;28;45578;-60
2021/10/02 08:00:37;;;;;;;;;3.50;2.75;;;;;15.76;67.96;100351.66;5053613;28;45464;-60
2021/10/02 08:03:03;;;;;;;;;4.00;2.00;;;;;15.85;67.13;100345.28;5037440;28;46474;-60
2021/10/02 08:05:28;;;;;;;;;1.75;1.00;;;;;15.93;67.09;100352.38;5022004;28;61497;-60
2021/10/02 08:07:53;;;;;;;;;4.25;1.25;;;;;15.96;66.46;100346.75;5039116;28;46609;-60
2021/10/02 08:10:21;;;;;;;;;1.50;1.50;;;;;15.98;65.68;100343.91;5056544;28;50505;-59
2021/10/02 08:12:46;;;;;;;;;3.00;2.00;;;;;15.97;66.15;100344.91;5057391;28;45430;-60
2021/10/02 08:15:12;;;;;;;;;4.00;3.00;;;;;15.96;66.19;100340.59;5057202;28;45696;-60
2021/10/02 08:17:38;;;;;;;;;3.50;2.00;;;;;15.94;65.78;100342.59;5056984;28;46277;-59
2021/10/02 08:20:08;;;;;;;;;4.75;3.00;;;;;15.91;65.65;100340.31;5038117;28;45356;-60
2021/10/02 08:22:38;;;;;;;;;4.00;2.00;;;;;15.87;65.02;100327.44;5038900;28;45518;-60
2021/10/02 08:25:04;;;;;;;;;6.25;3.00;;;;;15.84;64.56;100322.44;5038802;28;45527;-59
2021/10/02 08:27:29;;;;;;;;;1.75;1.75;;;;;15.82;65.52;100327.09;5055186;28;47413;-60
2021/10/02 08:29:54;;;;;;;;;3.00;3.00;;;;;15.81;65.01;100317.50;5020536;28;64296;-60
2021/10/02 08:32:20;;;;;;;;;4.75;2.00;;;;;15.81;65.73;100312.22;5038815;28;45579;-60
2021/10/02 08:34:45;;;;;;;;;3.00;1.75;;;;;15.82;65.17;100321.81;5020928;28;68337;-60
2021/10/02 08:37:10;;;;;;;;;4.75;3.75;;;;;15.84;65.10;100313.66;5055520;28;69374;-60
2021/10/02 08:39:36;;;;;;;;;3.00;3.00;;;;;15.82;65.23;100321.81;5055491;28;66361;-59
2021/10/02 08:42:02;;;;;;;;;5.25;3.00;;;;;15.84;65.52;100314.50;5055527;28;61104;-59
2021/10/02 08:44:27;;;;;;;;;2.75;2.75;;;;;15.85;65.65;100308.22;5056543;28;45488;-59
2021/10/02 08:46:53;;;;;;;;;4.50;3.00;;;;;15.84;65.35;100308.38;5038246;28;47030;-60
2021/10/02 08:49:18;;;;;;;;;4.25;2.75;;;;;15.85;65.34;100307.38;5056497;28;45474;-59
2021/10/02 08:51:47;;;;;;;;;5.33;3.00;;;;;15.82;64.80;100308.56;5055926;28;45224;-59
2021/10/02 08:54:13;;;;;;;;;6.00;4.00;;;;;15.83;64.99;100288.19;5038541;28;45612;-60
2021/10/02 08:56:38;;;;;;;;;4.00;3.25;;;;;15.88;65.22;100285.84;5036932;28;72648;-60
2021/10/02 08:59:03;;;;;;;;;3.50;2.75;;;;;15.96;64.71;100274.34;5054938;28;72188;-60
2021/10/02 09:01:29;;;;;;;;;4.00;3.00;;;;;15.99;64.89;100271.34;5020842;28;45468;-60
2021/10/02 09:03:54;;;;;;;;;6.25;3.50;;;;;16.04;64.41;100266.34;5055153;28;58633;-60
2021/10/02 09:06:20;;;;;;;;;2.00;2.00;;;;;16.12;64.41;100268.94;5055878;28;46208;-61
2021/10/02 09:08:45;;;;;;;;;4.50;3.25;;;;;16.20;64.30;100273.31;5055619;28;45460;-60
2021/10/02 09:11:11;;;;;;;;;7.00;3.00;;;;;16.28;64.46;100272.44;5055559;28;45329;-60
2021/10/02 09:13:36;;;;;;;;;2.00;1.50;;;;;16.37;64.22;100266.06;5037712;28;45256;-61
2021/10/02 09:16:01;;;;;;;;;3.75;3.50;;;;;16.48;64.45;100264.78;5054893;28;65428;-60
2021/10/02 09:18:27;;;;;;;;;5.25;2.50;;;;;16.61;63.46;100267.63;5055805;28;45328;-60
2021/10/02 09:21:03;;;;;;;;;5.25;3.75;;;;;16.75;63.09;100265.13;5037668;28;45382;-60
2021/10/02 09:23:28;;;;;;;;;4.75;2.25;;;;;16.86;63.69;100255.91;5055770;28;45514;-60
2021/10/02 09:25:53;;;;;;;;;3.00;1.25;;;;;17.02;62.98;100252.25;5055605;28;46080;-61
2021/10/02 09:28:19;;;;;;;;;4.25;3.00;;;;;17.20;63.23;100251.84;5054486;28;69878;-61
2021/10/02 09:30:45;;;;;;;;;5.00;4.00;;;;;17.47;62.63;100252.16;5055383;28;45439;-61
2021/10/02 09:33:22;;;;;;;;;5.00;4.00;;;;;17.71;61.22;100237.69;5037675;28;45296;-60
2021/10/02 09:35:48;;;;;;;;;4.00;2.50;;;;;17.97;60.33;100227.47;5038587;28;46254;-61
2021/10/02 09:38:15;;;;;;;;;4.00;4.00;;;;;18.23;60.41;100219.69;5055311;28;45488;-60
2021/10/02 09:40:50;;;;;;;;;3.00;2.50;;;;;18.47;60.02;100208.78;5055071;28;45486;-60
2021/10/02 09:43:16;;;;;;;;;6.25;4.50;;;;;18.73;59.39;100197.44;5038673;28;45518;-60
2021/10/02 09:45:41;;;;;;;;;4.00;3.00;;;;;18.99;59.19;100193.28;5054340;28;65628;-61
2021/10/02 09:48:11;;;;;;;;;6.00;4.50;;;;;19.24;57.83;100185.56;5053481;28;45475;-61
2021/10/02 09:50:41;;;;;;;;;5.00;3.00;;;;;19.49;57.93;100181.50;5055039;28;45579;-61
2021/10/02 09:53:08;;;;;;;;;2.00;2.00;;;;;19.69;56.94;100171.66;5055064;28;45527;-61
2021/10/02 09:55:38;;;;;;;;;3.75;3.75;;;;;19.86;55.10;100166.75;5036654;28;45415;-61
2021/10/02 09:58:09;;;;;;;;;3.00;1.00;;;;;19.96;53.64;100162.84;5055196;28;45538;-60
2021/10/02 10:00:39;;;;;;;;;4.00;3.00;;;;;19.97;52.96;100149.31;5054922;28;46198;-61
2021/10/02 10:03:07;;;;;;;;;2.25;1.00;;;;;20.00;54.06;100156.06;5037841;28;45543;-61
2021/10/02 10:05:42;;;;;;;;;3.50;3.00;;;;;20.12;54.04;100146.41;5036994;28;45621;-60
2021/10/02 10:08:11;;;;;;;;;2.75;2.75;;;;;20.23;52.78;100131.59;5068001;28;45815;-61
2021/10/02 10:10:41;;;;;;;;;4.25;3.00;;;;;20.22;51.97;100129.16;5054581;28;45503;-61
2021/10/02 10:13:19;;;;;;;;;2.75;2.00;;;;;20.16;52.39;100126.28;5037247;28;45597;-60
2021/10/02 10:15:45;;;;;;;;;1.25;1.25;;;;;20.11;51.76;100127.97;5054774;28;45469;-61
2021/10/02 10:18:12;;;;;;;;;4.75;1.00;;;;;20.00;51.67;100110.72;5054896;28;45403;-60
2021/10/02 10:20:48;;;;;;;;;5.00;3.00;;;;;19.92;51.98;100103.78;5055015;28;45340;-61
2021/10/02 10:23:14;;;;;;;;;3.25;2.00;;;;;19.88;51.96;100097.19;5055153;28;45487;-61
2021/10/02 10:25:53;;;;;;;;;2.50;2.50;;;;;19.82;52.94;100088.19;5054097;28;46270;-60
2021/10/02 10:28:20;;;;;;;;;2.00;2.00;;;;;19.76;51.64;100083.69;5067915;27;45857;-60
2021/10/02 10:30:47;;;;;;;;;4.00;1.50;;;;;19.73;51.61;100089.44;5053331;28;45408;-63
2021/10/02 10:33:14;;;;;;;;;3.25;3.00;;;;;19.71;52.23;100072.84;5036347;28;45588;-60
2021/10/02 10:35:41;;;;;;;;;3.00;3.00;;;;;19.70;52.25;100045.34;5037134;28;46410;-61
2021/10/02 10:38:14;;;;;;;;;4.75;3.50;;;;;19.64;52.62;100032.84;5036393;28;45339;-60
2021/10/02 10:40:39;;;;;;;;;2.75;2.75;;;;;19.56;52.16;100014.44;5054007;28;45306;-60
2021/10/02 10:43:04;;;;;;;;;2.00;2.00;;;;;19.49;52.78;100022.44;5054387;28;45363;-60
2021/10/02 10:45:30;;;;;;;;;3.00;2.50;;;;;19.43;52.45;100023.25;5054201;28;45430;-60
2021/10/02 10:47:58;;;;;;;;;2.75;2.00;;;;;19.36;52.16;100025.94;5054231;28;45406;-60
2021/10/02 10:50:24;;;;;;;;;3.00;2.00;;;;;19.29;51.85;100019.81;5053483;28;45288;-60
2021/10/02 10:52:50;;;;;;;;;1.25;1.25;;;;;19.23;52.51;100023.28;5054377;28;45566;-60
2021/10/02 10:55:21;;;;;;;;;1.50;1.50;;;;;19.17;53.19;100026.78;5036122;28;45974;-60
2021/10/02 10:57:51;;;;;;;;;3.00;2.00;;;;;19.13;52.91;100027.19;5037257;28;45495;-60
2021/10/02 11:00:18;;;;;;;;;3.25;2.00;;;;;19.12;53.52;100017.56;5035371;28;45285;-59
2021/10/02 11:02:46;;;;;;;;;4.00;2.00;;;;;19.13;53.16;100029.03;5054449;28;45527;-60
2021/10/02 11:05:36;;;;;;;;;3.00;2.00;;;;;19.15;53.32;100020.84;5054213;28;45418;-60
2021/10/02 11:08:02;;;;;;;;;2.00;2.00;;;;;19.08;52.96;100020.84;5053417;28;45837;-60
2021/10/02 11:10:43;;;;;;;;;3.00;3.00;;;;;18.98;52.07;100014.06;5053303;28;45514;-60
2021/10/02 11:13:26;;;;;;;;;3.50;1.50;;;;;18.91;51.98;100015.88;5054152;28;45702;-63
2021/10/02 11:15:53;;;;;;;;;3.00;3.00;;;;;18.86;52.58;100006.88;5054135;28;46917;-60
2021/10/02 11:18:45;;;;;;;;;6.25;4.75;;;;;18.82;53.04;99999.31;5036074;28;45691;-61
2021/10/02 11:21:15;;;;;;;;;14.75;11.50;;;;;18.81;53.13;100004.84;5053148;28;45541;-60
2021/10/02 11:24:03;;;;;;;;;7.75;4.00;;;;;18.80;53.02;100000.53;5054053;28;45423;-60
2021/10/02 11:26:50;;;;;;;;;13.25;11.00;;;;;18.74;53.68;99974.75;5052814;28;46307;-60
2021/10/02 11:29:29;;;;;;;;;9.25;7.25;;;;;18.71;53.66;99970.63;5035889;28;45469;-60
2021/10/02 11:32:32;;;;;;;;;16.00;12.50;;;;;18.65;54.42;99974.09;5052901;28;45482;-60
2021/10/02 11:35:12;;;;;;;;;18.00;18.00;;;;;18.62;54.74;99975.34;5053787;28;45379;-60
2021/10/02 11:37:41;;;;;;;;;9.75;7.50;;;;;18.63;54.91;99976.16;5056687;28;46778;-59
2021/10/02 11:40:36;;;;;;;;;9.75;6.75;;;;;18.58;55.25;99946.66;5056374;28;45473;-60
2021/10/02 11:43:13;;;;;;;;;3.75;3.00;;;;;18.57;55.37;99947.69;5057556;28;45331;-60
2021/10/02 11:45:59;;;;;;;;;4.25;3.25;;;;;18.49;55.46;99957.53;5057521;28;45598;-60
2021/10/02 11:48:36;;;;;;;;;6.00;6.00;;;;;18.46;55.98;99936.66;5057369;28;45352;-61
2021/10/02 11:51:12;;;;;;;;;5.00;4.00;;;;;18.46;56.09;99923.34;5037734;28;45658;-60
2021/10/02 11:53:56;;;;;;;;;7.50;5.75;;;;;18.45;56.57;99918.22;5073023;28;45291;-60
2021/10/02 11:56:26;;;;;;;;;5.00;3.75;;;;;18.43;56.68;99925.59;5071035;28;45415;-60
2021/10/02 11:58:54;;;;;;;;;3.00;2.75;;;;;18.43;57.10;99891.84;5039177;28;46485;-60
2021/10/02 12:01:24;;;;;;;;;3.50;3.50;;;;;18.42;56.90;99890.19;5056164;28;45440;-60
2021/10/02 12:04:01;;;;;;;;;5.50;5.00;;;;;18.42;57.25;99886.69;5057552;28;45342;-60
2021/10/02 12:06:26;;;;;;;;;5.00;4.00;;;;;18.38;57.26;99884.44;5023457;28;45427;-60
2021/10/02 12:08:51;;;;;;;;;6.50;3.75;;;;;18.40;57.40;99881.59;5037904;28;73114;-60
2021/10/02 12:11:17;;;;;;;;;4.00;4.00;;;;;18.38;57.39;99873.00;5055496;28;60500;-60
2021/10/02 12:13:49;;;;;;;;;4.50;4.00;;;;;18.37;57.63;99879.34;5057274;28;45479;-60
2021/10/02 12:16:22;;;;;;;;;4.00;2.25;;;;;18.37;57.73;99876.69;5039543;28;45592;-60
2021/10/02 12:19:06;;;;;;;;;7.75;7.50;;;;;18.36;57.87;99864.41;5038683;28;45642;-60